Time;durP1;ratioP1;P1;durP2;ratioP2;P2;SDS_P1;SDS_P2;PMS_P1;PMS_P2;Temp;Humidity;BMP_temperature;BMP_pressure;BME280_temperature;BME280_humidity;BME280_pressure;Samples;Min_cycle;Max_cycle;Signal;HPM_P1;HPM_P2
2021/03/28 00:00:17;;;;;;;132.75;62.50;;;;;;;6.41;53.81;95928.81;4969599;28;20061;-80
2021/03/28 00:02:50;;;;;;;159.50;77.65;;;;;;;6.35;53.74;95934.69;4986184;28;20038;-82
2021/03/28 00:05:17;;;;;;;;;;;;;;;6.35;54.35;95934.69;5001900;28;20062;-83
2021/03/28 00:07:48;;;;;;;182.82;91.03;;;;;;;6.23;55.08;95946.44;4998238;28;19994;-82
2021/03/28 00:10:28;;;;;;;216.15;97.40;;;;;;;6.11;55.38;95945.25;4980022;28;20041;-82
2021/03/28 00:13:19;;;;;;;187.57;88.28;;;;;;;6.13;55.67;95946.69;5003357;28;20088;-80
2021/03/28 00:15:59;;;;;;;213.52;105.53;;;;;;;6.15;55.92;95943.91;4985667;28;20034;-81
2021/03/28 00:18:29;;;;;;;221.43;105.13;;;;;;;6.07;55.36;95946.59;5004138;28;20085;-81
2021/03/28 00:21:17;;;;;;;192.95;88.53;;;;;;;5.95;55.35;95954.75;5000103;28;20038;-81
2021/03/28 00:23:58;;;;;;;192.88;85.68;;;;;;;6.04;55.86;95947.75;5008945;23;20047;-80
2021/03/28 00:26:33;;;;;;;162.23;74.65;;;;;;;5.97;55.31;95952.78;4956041;29;20035;-80
2021/03/28 00:29:23;;;;;;;185.05;92.65;;;;;;;5.98;55.53;95951.81;4950737;29;20044;-81
2021/03/28 00:32:03;;;;;;;230.25;112.97;;;;;;;5.93;55.47;95954.13;4956799;29;20326;-81
2021/03/28 00:34:30;;;;;;;238.63;107.13;;;;;;;5.97;55.48;95959.72;4956694;28;20484;-80
2021/03/28 00:37:09;;;;;;;208.00;95.43;;;;;;;5.98;55.50;95954.38;4956351;29;20038;-80
2021/03/28 00:39:54;;;;;;;170.07;85.45;;;;;;;5.94;55.36;95953.13;4955746;29;20039;-80
2021/03/28 00:42:22;;;;;;;178.57;86.95;;;;;;;5.79;56.82;95949.69;4953924;29;20032;-80
2021/03/28 00:44:50;;;;;;;168.70;82.47;;;;;;;5.80;56.29;95956.44;4956838;28;20479;-80
2021/03/28 00:49:42;;;;;;;132.85;67.70;;;;;;;5.82;56.10;95959.66;5040753;22;20050;-80
2021/03/28 00:52:17;;;;;;;131.20;66.53;;;;;;;5.76;56.03;95955.19;4976846;28;20042;-81
2021/03/28 00:54:58;;;;;;;166.63;75.40;;;;;;;5.71;55.34;95950.56;4999373;23;20976;-81
2021/03/28 00:57:35;;;;;;;139.75;69.20;;;;;;;5.63;55.97;95954.97;4967703;28;20067;-81
2021/03/28 01:00:38;;;;;;;142.70;68.10;;;;;;;5.68;56.00;95952.66;4975097;28;20042;-81
2021/03/28 01:03:20;;;;;;;183.82;82.07;;;;;;;5.63;56.30;95948.03;4975866;28;20031;-80
2021/03/28 01:05:52;;;;;;;157.38;78.22;;;;;;;5.62;56.27;95953.38;4974150;28;20041;-80
2021/03/28 01:08:18;;;;;;;;;;;;;;;5.62;56.84;95948.22;4958791;28;20098;-80
2021/03/28 01:11:08;;;;;;;111.65;54.22;;;;;;;5.66;56.14;95944.31;4978144;28;20374;-80
2021/03/28 01:13:55;;;;;;;163.27;74.50;;;;;;;5.63;56.39;95954.97;4985326;28;20586;-79
2021/03/28 01:16:48;;;;;;;143.43;72.55;;;;;;;5.53;57.20;95941.50;4974007;28;20523;-78
2021/03/28 01:19:35;;;;;;;155.98;70.32;;;;;;;5.54;56.62;95946.50;4973479;28;20066;-79
2021/03/28 01:22:07;;;;;;;135.10;65.45;;;;;;;5.38;57.11;95946.63;4975049;28;20043;-80
2021/03/28 01:24:39;;;;;;;138.50;61.95;;;;;;;5.38;56.69;95947.44;4976022;28;20521;-80
2021/03/28 01:27:30;;;;;;;149.82;67.63;;;;;;;5.29;56.71;95943.28;4976952;28;20174;-80
2021/03/28 01:29:58;;;;;;;173.73;74.88;;;;;;;5.30;57.07;95944.88;4976041;28;20062;-80
2021/03/28 01:33:00;;;;;;;179.35;78.35;;;;;;;5.31;57.16;95946.47;4974964;28;20499;-83
2021/03/28 01:35:56;;;;;;;181.68;80.45;;;;;;;5.24;57.81;95943.00;4974375;28;20038;-79
2021/03/28 01:38:58;;;;;;;187.80;78.85;;;;;;;5.19;57.27;95949.63;4975732;28;20035;-81
2021/03/28 01:41:24;;;;;;;174.80;74.33;;;;;;;5.17;57.75;95954.94;4961561;28;20534;-82
2021/03/28 01:43:58;;;;;;;140.88;64.80;;;;;;;5.16;57.09;95955.91;4982947;23;20046;-80
2021/03/28 01:46:52;;;;;;;178.52;75.72;;;;;;;5.07;58.10;95946.66;4996310;28;20042;-80
2021/03/28 01:49:45;;;;;;;159.48;69.35;;;;;;;5.02;58.26;95957.44;4988918;28;20153;-81
2021/03/28 01:52:22;;;;;;;;;;;;;;;5.07;58.19;95960.34;4988466;28;20035;-81
2021/03/28 01:54:47;;;;;;;137.55;59.13;;;;;;;5.00;58.12;95953.44;4983633;28;19922;-81
2021/03/28 01:57:43;;;;;;;174.57;76.72;;;;;;;5.00;58.08;95956.00;4991199;23;20065;-81
2021/03/28 02:00:34;;;;;;;193.18;76.25;;;;;;;5.04;57.97;95954.69;4973716;28;20418;-82
2021/03/28 02:03:05;;;;;;;216.20;90.13;;;;;;;4.96;58.36;95957.31;4980176;28;20058;-80
2021/03/28 02:05:33;;;;;;;247.00;95.03;;;;;;;4.99;57.97;95946.66;4985402;28;20071;-82
2021/03/28 02:08:18;;;;;;;199.20;83.45;;;;;;;4.95;57.66;95950.56;4975102;28;20039;-81
2021/03/28 02:10:49;;;;;;;199.32;82.18;;;;;;;4.96;58.32;95950.41;4957776;28;20034;-82
2021/03/28 02:13:42;;;;;;;220.85;90.40;;;;;;;4.87;58.26;95948.00;4975576;28;20034;-81
2021/03/28 02:16:30;;;;;;;262.90;107.97;;;;;;;4.93;57.69;95944.78;4973930;28;20031;-82
2021/03/28 02:19:18;;;;;;;244.35;108.90;;;;;;;4.98;58.16;95945.06;4972998;28;20294;-81
2021/03/28 02:22:01;;;;;;;239.48;107.88;;;;;;;4.96;58.04;95954.75;4992251;23;20054;-81
2021/03/28 02:24:48;;;;;;;;;;;;;;;4.97;58.05;95944.25;4979104;28;20045;-81
2021/03/28 02:27:28;;;;;;;220.00;95.05;;;;;;;4.93;58.22;95947.34;5012110;23;19926;-80
2021/03/28 02:30:15;;;;;;;196.57;90.10;;;;;;;5.01;58.16;95952.47;4967214;28;20422;-81
2021/03/28 02:33:17;;;;;;;221.00;98.00;;;;;;;4.90;58.37;95958.00;4965706;28;20099;-82
2021/03/28 02:35:53;;;;;;;240.43;112.22;;;;;;;4.92;57.81;95956.88;4961970;28;20039;-81
2021/03/28 02:38:31;;;;;;;235.82;119.50;;;;;;;4.86;58.09;95956.72;5056687;23;20054;-80
2021/03/28 02:41:25;;;;;;;232.18;120.22;;;;;;;4.86;58.20;95961.88;5034365;23;20365;-79
2021/03/28 02:43:53;;;;;;;253.13;121.90;;;;;;;4.80;57.90;95959.00;4977341;23;20082;-79
2021/03/28 02:46:29;;;;;;;262.50;124.75;;;;;;;4.87;58.07;95961.69;4969093;28;20415;-79
2021/03/28 02:49:01;;;;;;;214.60;109.65;;;;;;;4.85;57.78;95962.84;4954634;28;20396;-78
2021/03/28 02:52:04;;;;;;;230.57;115.72;;;;;;;4.73;58.01;95970.97;4987278;23;20136;-78
2021/03/28 02:54:46;;;;;;;239.75;99.70;;;;;;;4.67;58.61;95973.38;4978294;28;20113;-78
2021/03/28 02:57:40;;;;;;;173.05;78.15;;;;;;;4.65;58.80;95980.47;4963701;28;20043;-78
2021/03/28 03:03:08;;;;;;;139.77;62.55;;;;;;;4.67;58.20;95984.50;4997367;23;20043;-80
2021/03/28 03:05:42;;;;;;;145.48;63.83;;;;;;;4.69;58.41;95976.59;4972785;28;20039;-80
2021/03/28 03:08:52;;;;;;;146.10;68.55;;;;;;;4.68;58.57;95980.94;4974801;28;20042;-80
2021/03/28 03:11:20;;;;;;;159.57;78.32;;;;;;;4.68;57.60;95965.47;4968214;23;20060;-80
2021/03/28 03:14:12;;;;;;;120.90;64.78;;;;;;;4.78;57.97;95976.41;5026460;23;20123;-79
2021/03/28 03:17:03;;;;;;;125.30;64.97;;;;;;;4.80;58.37;95973.66;4978884;28;20071;-80
2021/03/28 03:19:59;;;;;;;160.13;76.05;;;;;;;4.86;58.54;95977.34;4974247;28;20562;-80
2021/03/28 03:23:03;;;;;;;132.45;67.40;;;;;;;4.82;58.47;95982.81;4973220;28;20114;-80
2021/03/28 03:26:05;;;;;;;172.35;79.82;;;;;;;4.81;58.85;95985.56;4990147;28;20031;-82
2021/03/28 03:28:57;;;;;;;174.13;85.60;;;;;;;4.82;58.62;95987.19;4973594;28;20129;-81
2021/03/28 03:31:27;;;;;;;184.48;79.68;;;;;;;4.86;59.05;95988.44;4977491;28;20094;-80
2021/03/28 03:34:17;;;;;;;173.45;80.45;;;;;;;4.94;58.57;95990.19;4974049;28;20035;-81
2021/03/28 03:37:00;;;;;;;152.02;75.32;;;;;;;5.02;58.71;95990.16;4973709;28;20031;-81
2021/03/28 03:39:48;;;;;;;150.13;67.07;;;;;;;5.02;58.14;95990.94;4972834;28;20042;-81
2021/03/28 03:42:32;;;;;;;168.70;76.45;;;;;;;5.03;58.39;95989.19;5043281;23;20112;-81
2021/03/28 03:45:16;;;;;;;175.98;77.63;;;;;;;5.03;58.04;95999.50;4974851;28;20046;-81
2021/03/28 03:47:57;;;;;;;149.20;71.43;;;;;;;5.01;58.20;96009.16;4975404;28;20066;-81
2021/03/28 03:50:29;;;;;;;169.82;72.90;;;;;;;4.98;57.75;95999.19;4985292;28;20069;-79
2021/03/28 03:53:25;;;;;;;161.75;75.50;;;;;;;5.02;57.89;96000.47;4988481;28;20058;-80
2021/03/28 03:56:00;;;;;;;201.55;89.55;;;;;;;5.00;57.60;96002.41;4980247;28;20043;-81
2021/03/28 03:58:28;;;;;;;237.68;100.40;;;;;;;4.88;58.13;96011.47;4977763;28;20102;-81
2021/03/28 04:01:19;;;;;;;239.85;104.63;;;;;;;4.83;58.08;96007.63;4977645;28;20039;-81
2021/03/28 04:04:06;;;;;;;138.93;68.28;;;;;;;4.96;58.16;96007.09;5036257;23;20089;-81
2021/03/28 04:06:41;;;;;;;132.85;61.58;;;;;;;5.02;58.77;96005.63;5004417;28;20025;-80
2021/03/28 04:09:14;;;;;;;135.05;62.08;;;;;;;5.01;57.78;96011.75;4986203;28;20038;-79
2021/03/28 04:12:02;;;;;;;111.30;50.60;;;;;;;4.94;58.13;96010.81;4981863;28;20062;-79
2021/03/28 04:14:39;;;;;;;97.07;48.58;;;;;;;4.91;58.52;96024.03;4978909;28;20034;-82
2021/03/28 04:17:16;;;;;;;135.55;58.80;;;;;;;5.00;57.53;96015.28;4969594;28;20118;-81
2021/03/28 04:19:50;;;;;;;147.73;72.35;;;;;;;4.95;58.08;96018.38;4978976;28;20042;-81
2021/03/28 04:22:38;;;;;;;197.10;94.55;;;;;;;5.06;57.59;96038.66;4985571;28;20039;-81
2021/03/28 04:25:37;;;;;;;225.70;108.10;;;;;;;5.00;58.00;96030.75;4976211;28;20046;-80
2021/03/28 04:28:06;;;;;;;207.80;101.70;;;;;;;4.99;58.34;96034.31;4981763;28;20027;-81
2021/03/28 04:30:44;;;;;;;187.48;90.60;;;;;;;5.08;57.50;96041.06;4979054;28;20126;-81
2021/03/28 04:33:42;;;;;;;177.95;89.60;;;;;;;5.08;57.93;96039.28;4976238;28;20143;-82
2021/03/28 04:36:28;;;;;;;158.85;83.93;;;;;;;5.19;57.29;96040.66;4969734;28;20481;-81
2021/03/28 04:39:15;;;;;;;153.70;81.80;;;;;;;5.33;57.79;96045.13;4976443;28;20046;-82
2021/03/28 04:42:24;;;;;;;161.73;88.90;;;;;;;5.61;57.14;96047.25;4976204;28;20034;-82
2021/03/28 04:45:11;;;;;;;155.32;79.90;;;;;;;6.00;55.85;96054.91;4977217;28;20105;-82
2021/03/28 04:47:42;;;;;;;168.05;86.53;;;;;;;6.68;53.98;96055.81;4977246;28;20407;-82
2021/03/28 04:50:38;;;;;;;148.82;85.50;;;;;;;7.46;51.69;96050.03;4979195;28;20430;-82
2021/03/28 04:53:41;;;;;;;176.85;91.80;;;;;;;8.67;48.86;96051.78;4994373;23;20058;-81
2021/03/28 04:56:34;;;;;;;148.10;75.50;;;;;;;10.07;45.73;96057.38;4967905;28;20110;-81
2021/03/28 04:59:40;;;;;;;157.07;74.65;;;;;;;11.14;42.82;96058.94;5017427;23;20047;-81
2021/03/28 05:02:25;;;;;;;142.90;76.25;;;;;;;12.56;39.54;96061.25;4976510;28;20113;-81
2021/03/28 05:05:09;;;;;;;102.10;47.97;;;;;;;13.51;36.63;96058.34;4974687;28;20038;-81
2021/03/28 05:08:05;;;;;;;86.03;39.92;;;;;;;14.01;35.38;96055.47;4991951;28;20046;-81
2021/03/28 05:10:31;;;;;;;87.95;42.03;;;;;;;13.97;35.40;96054.31;4972955;28;20042;-79
2021/03/28 05:13:15;;;;;;;80.32;38.03;;;;;;;14.47;33.87;96062.66;4975794;28;20294;-81
2021/03/28 05:16:21;;;;;;;85.20;37.63;;;;;;;14.82;34.01;96064.53;4975777;28;20045;-81
2021/03/28 05:18:49;;;;;;;73.80;37.70;;;;;;;13.91;35.41;96063.06;4990462;28;20046;-81
2021/03/28 05:21:26;;;;;;;74.90;40.75;;;;;;;13.05;36.57;96069.25;4975027;28;20046;-81
2021/03/28 05:24:18;;;;;;;73.45;38.88;;;;;;;12.36;37.84;96071.00;4974737;28;20137;-81
2021/03/28 05:27:01;;;;;;;78.05;37.67;;;;;;;11.96;38.53;96068.66;4975139;28;20117;-81
2021/03/28 05:29:48;;;;;;;78.85;38.05;;;;;;;11.68;39.64;96073.38;5060548;23;20474;-82
2021/03/28 05:32:45;;;;;;;71.50;37.35;;;;;;;12.15;38.59;96079.19;4981288;28;20034;-81
2021/03/28 05:35:32;;;;;;;70.10;36.47;;;;;;;12.79;37.70;96083.31;4980938;28;20029;-82
2021/03/28 05:38:07;;;;;;;79.70;35.78;;;;;;;13.49;36.29;96082.03;4975316;28;20039;-82
2021/03/28 05:40:56;;;;;;;60.38;33.05;;;;;;;14.12;35.12;96080.84;4988949;28;20039;-82
2021/03/28 05:43:49;;;;;;;61.80;35.72;;;;;;;14.71;34.09;96089.69;4976756;28;20094;-82
2021/03/28 05:46:17;;;;;;;68.93;36.20;;;;;;;15.23;32.52;96092.41;4975091;28;20038;-81
2021/03/28 05:49:08;;;;;;;65.97;37.05;;;;;;;15.48;32.09;96095.59;4971086;28;20046;-82
2021/03/28 05:51:36;;;;;;;62.72;35.22;;;;;;;15.67;32.30;96095.47;4974029;28;20047;-79
2021/03/28 05:54:23;;;;;;;66.15;36.65;;;;;;;15.99;31.91;96106.31;4966308;28;20038;-80
2021/03/28 05:57:10;;;;;;;68.70;35.45;;;;;;;16.20;31.38;96101.19;4997309;23;20051;-81
2021/03/28 05:59:42;;;;;;;69.40;36.05;;;;;;;16.00;31.83;96102.66;4984339;28;20041;-80
2021/03/28 06:02:13;;;;;;;71.57;36.42;;;;;;;15.67;32.21;96103.34;5035474;23;20046;-80
2021/03/28 06:05:20;;;;;;;78.97;37.17;;;;;;;15.37;32.42;96113.94;4976137;28;20056;-81
2021/03/28 06:08:06;;;;;;;86.63;37.95;;;;;;;15.25;33.17;96106.09;4892324;29;20657;-81
2021/03/28 06:10:56;;;;;;;70.95;37.10;;;;;;;15.17;33.43;96103.81;4879716;29;20044;-81
2021/03/28 06:13:49;;;;;;;80.00;36.45;;;;;;;15.06;33.58;96107.22;4939636;29;20045;-83
2021/03/28 06:16:36;;;;;;;88.40;47.22;;;;;;;15.19;33.79;96114.88;4963214;28;20036;-82
2021/03/28 06:19:43;;;;;;;73.88;36.67;;;;;;;15.39;33.79;96115.31;4956186;28;20027;-81
2021/03/28 06:22:46;;;;;;;73.30;39.60;;;;;;;16.06;32.78;96110.38;4948449;29;20078;-82
2021/03/28 06:25:30;;;;;;;73.05;37.72;;;;;;;16.64;31.99;96109.31;4956956;29;20031;-81
2021/03/28 06:28:18;;;;;;;64.50;36.75;;;;;;;17.04;30.66;96103.13;4955582;29;20110;-82
2021/03/28 06:30:51;;;;;;;76.10;36.72;;;;;;;17.30;30.14;96110.34;4955402;29;20074;-82
2021/03/28 06:33:46;;;;;;;74.70;35.80;;;;;;;17.36;29.75;96112.00;4955134;29;20399;-82
2021/03/28 06:36:17;;;;;;;61.15;34.53;;;;;;;17.00;29.87;96112.53;4955191;29;20059;-80
2021/03/28 06:39:12;;;;;;;69.78;35.83;;;;;;;16.61;30.09;96115.03;4959685;28;20039;-80
2021/03/28 06:41:58;;;;;;;67.50;35.95;;;;;;;16.46;30.64;96112.16;4957582;29;20637;-81
2021/03/28 06:44:51;;;;;;;70.28;34.88;;;;;;;16.53;30.59;96118.03;4953590;29;20118;-83
2021/03/28 06:47:44;;;;;;;73.35;38.83;;;;;;;16.67;30.24;96113.31;4955415;29;20098;-81
2021/03/28 06:50:20;;;;;;;75.78;39.47;;;;;;;16.70;30.22;96113.63;4956019;29;20039;-81
2021/03/28 06:52:53;;;;;;;71.10;37.78;;;;;;;16.84;29.89;96118.59;4955506;29;20023;-81
2021/03/28 06:55:37;;;;;;;75.60;38.08;;;;;;;17.02;30.59;96118.34;4956399;29;20031;-81
2021/03/28 06:58:24;;;;;;;79.32;38.40;;;;;;;16.79;30.31;96127.97;4956121;29;20047;-81
2021/03/28 07:01:17;;;;;;;85.93;39.63;;;;;;;16.40;30.84;96124.38;4968217;28;20039;-81
2021/03/28 07:04:28;;;;;;;81.50;38.08;;;;;;;15.79;31.84;96127.72;4953220;29;20034;-81
2021/03/28 07:07:37;;;;;;;63.05;35.25;;;;;;;15.11;32.44;96125.69;4942822;28;20055;-81
2021/03/28 07:10:26;;;;;;;70.38;38.63;;;;;;;14.65;33.37;96133.28;4950192;28;20036;-82
2021/03/28 07:13:24;;;;;;;76.72;39.63;;;;;;;14.27;33.76;96130.97;5143139;23;20466;-80
2021/03/28 07:16:21;;;;;;;83.72;40.10;;;;;;;14.15;34.77;96140.56;5011981;23;20022;-80
2021/03/28 07:19:03;;;;;;;77.82;40.30;;;;;;;14.07;35.44;96135.66;5071337;23;20037;-82
2021/03/28 07:21:56;;;;;;;88.07;43.95;;;;;;;14.06;35.08;96141.91;5124526;23;20060;-83
2021/03/28 07:24:48;;;;;;;87.28;44.22;;;;;;;13.89;35.64;96140.91;4973763;28;20067;-82
2021/03/28 07:27:35;;;;;;;84.88;45.08;;;;;;;13.93;35.21;96136.84;4972935;28;20074;-82
2021/03/28 07:30:36;;;;;;;90.65;45.60;;;;;;;14.00;35.97;96145.41;4966409;28;20094;-83
2021/03/28 07:33:33;;;;;;;81.43;45.88;;;;;;;14.12;36.13;96149.66;4977771;28;20026;-82
2021/03/28 07:36:10;;;;;;;86.60;43.63;;;;;;;14.38;35.78;96148.53;4979041;28;20521;-82
2021/03/28 07:39:20;;;;;;;72.07;40.42;;;;;;;14.64;35.49;96151.81;4978900;28;20031;-81
2021/03/28 07:42:26;;;;;;;83.30;41.35;;;;;;;14.88;34.87;96153.47;4978591;28;20046;-81
2021/03/28 07:45:20;;;;;;;87.80;42.80;;;;;;;15.09;35.52;96164.41;4936297;29;20064;-78
2021/03/28 07:48:41;;;;;;;77.72;42.45;;;;;;;15.33;34.37;96160.78;4945370;29;20042;-79
2021/03/28 07:51:31;;;;;;;86.57;42.00;;;;;;;15.30;34.50;96166.50;4927195;29;20074;-79
2021/03/28 07:54:26;;;;;;;73.80;41.10;;;;;;;15.64;34.71;96177.22;5051166;23;20110;-78
2021/03/28 07:57:23;;;;;;;81.35;41.33;;;;;;;15.99;33.80;96167.47;5011574;28;20045;-83
2021/03/28 07:59:55;;;;;;;76.90;40.75;;;;;;;16.33;33.29;96159.69;5004576;28;20035;-81
2021/03/28 08:02:46;;;;;;;77.75;40.10;;;;;;;16.61;32.89;96158.91;4987787;28;20103;-82
2021/03/28 08:05:13;;;;;;;77.57;39.17;;;;;;;16.87;32.28;96163.56;5124961;23;20037;-81
2021/03/28 08:07:54;;;;;;;73.38;40.80;;;;;;;17.13;32.21;96169.22;5028914;28;20080;-81
2021/03/28 08:10:45;;;;;;;72.20;39.10;;;;;;;17.34;31.32;96161.41;5005747;28;20035;-82
2021/03/28 08:13:47;;;;;;;68.50;35.92;;;;;;;17.52;31.29;96156.91;4998716;28;20104;-83
2021/03/28 08:16:32;;;;;;;;;;;;;;;17.66;31.22;96158.16;5005224;28;20041;-84
2021/03/28 08:21:43;;;;;;;30.13;13.27;;;;;;;17.36;29.88;96159.31;5005670;23;20066;-83
2021/03/28 08:24:14;;;;;;;17.52;11.32;;;;;;;17.34;30.02;96161.41;5394406;22;20050;-80
2021/03/28 08:29:59;;;;;;;13.50;9.70;;;;;;;17.25;30.08;96146.28;5028573;23;20197;-81
2021/03/28 08:32:27;;;;;;;17.83;8.50;;;;;;;17.04;30.24;96151.22;4992251;28;20503;-81
2021/03/28 08:35:30;;;;;;;16.02;9.38;;;;;;;16.88;31.67;96152.00;4986685;28;20517;-83
2021/03/28 08:38:28;;;;;;;18.05;9.23;;;;;;;16.74;31.86;96150.72;4990327;28;20031;-83
2021/03/28 08:41:09;;;;;;;25.80;10.60;;;;;;;17.05;32.34;96146.75;4981105;28;20035;-84
2021/03/28 08:44:05;;;;;;;25.42;12.20;;;;;;;17.10;32.97;96160.00;4980102;28;20033;-80
2021/03/28 08:47:07;;;;;;;19.83;10.27;;;;;;;17.32;32.50;96158.22;4985031;28;20125;-80
2021/03/28 08:49:41;;;;;;;21.52;10.07;;;;;;;17.39;32.53;96153.56;4989962;28;20041;-82
2021/03/28 08:52:25;;;;;;;30.52;14.05;;;;;;;17.53;32.72;96153.25;4988859;28;20046;-79
2021/03/28 08:54:53;;;;;;;23.60;13.00;;;;;;;17.61;32.21;96160.72;4983594;28;20046;-84
2021/03/28 09:00:40;;;;;;;14.48;8.43;;;;;;;17.06;33.03;96158.84;5018310;23;20046;-83
2021/03/28 09:06:22;;;;;;;16.98;7.85;;;;;;;16.09;34.76;96165.00;5277834;23;20059;-85
2021/03/28 09:08:53;;;;;;;19.92;8.38;;;;;;;15.64;35.71;96161.50;5309103;23;20058;-82
2021/03/28 09:11:50;;;;;;;23.93;9.17;;;;;;;15.59;36.51;96165.56;5047466;23;21310;-83
2021/03/28 09:14:44;;;;;;;23.23;8.68;;;;;;;15.84;36.75;96161.91;5006649;28;20284;-85
2021/03/28 09:17:31;;;;;;;17.42;10.02;;;;;;;15.98;36.28;96155.38;5007964;28;20064;-83
2021/03/28 09:20:38;;;;;;;13.07;9.23;;;;;;;15.96;36.53;96175.78;5005242;28;20037;-83
2021/03/28 09:25:57;;;;;;;26.08;11.48;;;;;;;16.14;36.64;96165.13;5132830;23;20108;-83
2021/03/28 09:28:53;;;;;;;24.13;9.52;;;;;;;16.50;36.04;96153.47;4986994;28;20045;-83
2021/03/28 09:31:31;;;;;;;15.18;9.82;;;;;;;16.87;35.71;96154.88;4986306;28;20070;-84
2021/03/28 09:34:08;;;;;;;13.65;8.65;;;;;;;16.99;35.75;96148.53;4989972;28;20106;-83
2021/03/28 09:36:41;;;;;;;19.00;8.75;;;;;;;16.86;35.32;96140.94;4985728;28;20133;-82
2021/03/28 09:39:21;;;;;;;;;;;;;;;16.86;35.55;96148.81;5005733;28;20038;-83
2021/03/28 09:42:16;;;;;;;14.15;8.45;;;;;;;16.72;35.90;96163.31;4986460;28;19922;-83
2021/03/28 09:45:30;;;;;;;19.13;8.07;;;;;;;16.42;37.03;96147.78;5001009;28;20310;-83
2021/03/28 09:48:12;;;;;;;14.73;8.55;;;;;;;16.14;38.45;96170.38;4979737;28;20045;-83
2021/03/28 09:51:03;;;;;;;23.75;16.48;;;;;;;15.91;38.44;96183.53;4969395;28;20034;-83
2021/03/28 09:53:37;;;;;;;21.30;10.77;;;;;;;15.63;39.55;96160.69;4988181;28;20191;-84
2021/03/28 09:56:16;;;;;;;23.58;12.30;;;;;;;15.40;40.01;96164.06;4988093;28;20030;-84
2021/03/28 09:59:05;;;;;;;15.75;9.98;;;;;;;15.28;40.83;96160.66;5009806;23;20187;-83
2021/03/28 10:01:45;;;;;;;15.90;8.32;;;;;;;15.24;41.33;96164.75;5004840;28;20511;-84
2021/03/28 10:04:14;;;;;;;17.48;11.80;;;;;;;15.24;42.90;96159.53;4985265;28;20513;-84
2021/03/28 10:06:56;;;;;;;15.07;9.50;;;;;;;15.35;42.66;96157.94;4995683;28;20414;-84
2021/03/28 10:09:43;;;;;;;12.88;8.95;;;;;;;15.24;43.65;96149.03;4997999;28;20053;-85
2021/03/28 10:12:25;;;;;;;18.98;8.52;;;;;;;15.43;43.36;96158.38;5011190;28;20490;-83
2021/03/28 10:15:02;;;;;;;26.52;11.00;;;;;;;15.82;43.21;96153.47;4995074;28;20045;-83
2021/03/28 10:17:51;;;;;;;18.73;10.60;;;;;;;16.00;42.68;96155.94;5006496;28;20101;-84
2021/03/28 10:20:40;;;;;;;14.50;8.95;;;;;;;16.08;41.81;96168.66;4989067;28;20041;-83
2021/03/28 10:23:17;;;;;;;18.40;9.55;;;;;;;16.00;42.03;96155.13;4991135;28;20038;-83
2021/03/28 10:26:14;;;;;;;22.60;9.88;;;;;;;15.97;42.40;96156.41;4985667;28;20038;-86
2021/03/28 10:31:25;;;;;;;34.30;20.20;;;;;;;16.29;42.12;96163.84;5015603;22;20141;-85
2021/03/28 10:33:50;;;;;;;40.72;20.55;;;;;;;16.39;41.60;96164.00;4971134;28;20073;-85
2021/03/28 10:36:40;;;;;;;14.93;9.85;;;;;;;16.09;42.55;96165.00;4983274;28;20035;-84
2021/03/28 10:39:21;;;;;;;20.20;11.60;;;;;;;15.97;42.72;96164.28;4990342;28;20035;-83
2021/03/28 10:42:21;;;;;;;17.58;11.15;;;;;;;15.94;42.73;96172.59;5009845;23;20418;-84
2021/03/28 10:45:14;;;;;;;20.35;12.15;;;;;;;15.86;43.26;96165.09;4987872;28;20073;-84
2021/03/28 10:48:02;;;;;;;19.17;10.65;;;;;;;15.87;43.86;96177.16;5000669;28;20043;-85
2021/03/28 10:50:46;;;;;;;20.02;10.40;;;;;;;15.96;44.38;96186.28;5000260;28;20040;-84
2021/03/28 10:53:30;;;;;;;16.90;12.02;;;;;;;15.97;44.24;96181.84;5001103;28;20054;-85
2021/03/28 10:56:18;;;;;;;20.50;10.95;;;;;;;15.76;44.61;96175.34;4998766;28;20115;-83
2021/03/28 10:58:49;;;;;;;28.92;11.23;;;;;;;15.56;44.95;96186.97;5001056;28;20042;-84
2021/03/28 11:01:43;;;;;;;18.97;12.07;;;;;;;15.55;45.01;96184.59;4999678;28;20065;-79
2021/03/28 11:04:35;;;;;;;17.17;10.73;;;;;;;15.41;44.76;96189.25;5005211;28;20042;-86
2021/03/28 11:07:24;;;;;;;20.33;10.40;;;;;;;15.29;44.62;96180.59;4993741;28;20037;-84
2021/03/28 11:10:04;;;;;;;13.18;9.65;;;;;;;15.16;44.34;96186.06;4999667;28;20033;-83
2021/03/28 11:13:04;;;;;;;24.30;11.40;;;;;;;15.20;44.95;96184.59;5045069;23;20146;-84
2021/03/28 11:16:13;;;;;;;21.90;12.55;;;;;;;15.30;44.72;96176.97;5004167;28;20034;-82
2021/03/28 11:19:15;;;;;;;31.45;11.48;;;;;;;15.05;44.51;96189.47;4996972;28;20105;-86
2021/03/28 11:22:16;;;;;;;23.08;10.25;;;;;;;14.81;44.93;96194.69;5005485;28;20541;-81
2021/03/28 11:24:54;;;;;;;17.65;12.43;;;;;;;14.78;45.13;96192.47;5019866;28;20030;-82
2021/03/28 11:29:59;;;;;;;22.90;13.88;;;;;;;14.65;45.42;96192.69;5005936;28;20114;-83
2021/03/28 11:32:48;;;;;;;20.33;11.93;;;;;;;14.70;45.46;96190.19;5003704;28;20034;-81
2021/03/28 11:35:33;;;;;;;20.33;13.75;;;;;;;14.70;45.13;96179.72;4995843;28;20034;-83
2021/03/28 11:38:17;;;;;;;17.35;12.00;;;;;;;14.57;45.60;96183.31;4981892;28;20038;-80
2021/03/28 11:43:50;;;;;;;20.23;13.93;;;;;;;14.73;46.04;96196.81;5053120;23;20054;-80
2021/03/28 11:46:36;;;;;;;19.38;14.13;;;;;;;14.89;44.67;96191.72;5006066;28;20027;-79
2021/03/28 11:49:02;;;;;;;26.70;12.20;;;;;;;14.77;45.57;96197.94;4992981;28;20021;-80
2021/03/28 11:51:41;;;;;;;30.33;19.90;;;;;;;14.74;45.28;96199.19;5008774;28;20056;-79
2021/03/28 11:54:12;;;;;;;28.08;18.50;;;;;;;14.68;45.31;96193.03;5018178;28;20030;-79
2021/03/28 11:56:53;;;;;;;23.10;15.65;;;;;;;14.58;44.96;96195.38;5003519;28;20042;-80
2021/03/28 11:59:26;;;;;;;20.38;14.50;;;;;;;14.34;45.38;96191.06;5008546;28;20042;-80
2021/03/28 12:01:55;;;;;;;20.02;14.88;;;;;;;14.19;46.07;96193.28;5004064;28;20096;-79
2021/03/28 12:04:37;;;;;;;22.70;16.33;;;;;;;14.04;46.78;96188.41;5008971;28;20477;-79
2021/03/28 12:07:34;;;;;;;24.45;15.95;;;;;;;14.08;46.47;96190.38;4976885;28;20054;-80
2021/03/28 12:10:00;;;;;;;25.13;19.13;;;;;;;14.08;46.32;96190.38;5012472;28;20034;-80
2021/03/28 12:12:39;;;;;;;20.10;15.40;;;;;;;14.03;46.29;96181.59;5030290;23;20084;-80
2021/03/28 12:15:42;;;;;;;27.55;17.42;;;;;;;13.96;46.29;96184.25;4989249;28;20026;-81
2021/03/28 12:18:23;;;;;;;32.17;19.60;;;;;;;13.95;46.57;96181.88;4996659;28;20043;-79
2021/03/28 12:21:02;;;;;;;28.95;19.13;;;;;;;13.84;46.26;96177.38;5035438;23;20041;-79
2021/03/28 12:23:37;;;;;;;23.25;17.48;;;;;;;13.82;46.01;96170.53;5002496;28;20038;-78
2021/03/28 12:26:22;;;;;;;27.73;16.70;;;;;;;13.76;45.89;96160.97;4990853;28;20038;-79
2021/03/28 12:29:12;;;;;;;19.88;17.15;;;;;;;13.68;46.76;96173.53;4981287;28;20033;-79
2021/03/28 12:31:47;;;;;;;25.13;16.50;;;;;;;13.60;46.57;96166.78;4981018;23;20546;-79
2021/03/28 12:34:35;;;;;;;23.15;16.63;;;;;;;13.58;47.14;96157.56;4981208;28;20126;-80
2021/03/28 12:37:05;;;;;;;23.52;17.23;;;;;;;13.54;46.97;96157.19;5033153;23;20055;-81
2021/03/28 12:39:38;;;;;;;21.77;17.05;;;;;;;13.60;47.22;96152.91;5035819;23;20050;-79
2021/03/28 12:42:03;;;;;;;;;;;;;;;13.72;46.53;96153.78;4984036;28;20117;-77
2021/03/28 12:44:34;;;;;;;26.58;18.33;;;;;;;13.63;46.88;96157.69;4981120;28;19972;-81
2021/03/28 12:47:01;;;;;;;30.80;18.92;;;;;;;13.60;47.06;96156.31;4952159;28;20030;-80
2021/03/28 12:49:29;;;;;;;23.95;18.02;;;;;;;13.60;47.11;96156.31;4983703;28;20026;-80
2021/03/28 12:52:03;;;;;;;20.10;15.43;;;;;;;13.58;47.11;96158.34;4983995;28;20334;-80
2021/03/28 12:54:35;;;;;;;28.20;19.15;;;;;;;13.60;47.46;96140.63;5000031;28;20026;-79
2021/03/28 12:57:43;;;;;;;28.17;17.27;;;;;;;13.67;47.28;96141.38;4993776;28;20034;-79
2021/03/28 13:00:21;;;;;;;34.63;18.00;;;;;;;13.69;47.33;96146.38;4912363;29;20036;-80
2021/03/28 13:05:31;;;;;;;34.75;22.83;;;;;;;13.69;46.94;96147.19;5065374;23;20054;-79
2021/03/28 13:07:58;;;;;;;30.48;21.38;;;;;;;13.75;46.99;96146.28;5015385;28;20525;-79